createdAt,value
2018-05-27T00:00:01.187Z,17.85
2018-05-27T00:02:33.726Z,17.76
2018-05-27T00:05:06.269Z,17.70
2018-05-27T00:07:39.109Z,17.68
2018-05-27T00:10:11.640Z,17.61
2018-05-27T00:12:44.172Z,17.54
2018-05-27T00:15:16.704Z,17.48
2018-05-27T00:17:49.215Z,17.41
2018-05-27T00:20:21.737Z,17.37
2018-05-27T00:22:54.250Z,17.32
2018-05-27T00:25:26.808Z,17.27
2018-05-27T00:27:59.316Z,17.25
2018-05-27T00:30:31.847Z,17.21
2018-05-27T00:33:04.357Z,17.13
2018-05-27T00:35:36.907Z,17.10
2018-05-27T00:38:10.306Z,17.09
2018-05-27T00:40:42.828Z,17.05
2018-05-27T00:43:15.332Z,17.01
2018-05-27T00:45:47.849Z,16.97
2018-05-27T00:48:20.372Z,16.94
2018-05-27T00:50:52.948Z,16.85
2018-05-27T00:56:25.606Z,16.76
2018-05-27T00:58:58.189Z,16.75
2018-05-27T01:01:30.784Z,16.75
2018-05-27T01:04:03.363Z,16.73
2018-05-27T01:06:35.986Z,16.68
2018-05-27T01:09:08.557Z,16.70
2018-05-27T01:11:41.146Z,16.72
2018-05-27T01:14:13.754Z,16.72
2018-05-27T01:16:46.353Z,16.73
2018-05-27T01:19:18.940Z,16.73
2018-05-27T01:21:51.541Z,16.70
2018-05-27T01:24:24.097Z,16.67
2018-05-27T01:26:56.725Z,16.66
2018-05-27T01:29:29.292Z,16.63
2018-05-27T01:32:01.979Z,16.60
2018-05-27T01:34:34.588Z,16.48
2018-05-27T01:37:07.195Z,16.38
2018-05-27T01:39:39.749Z,16.33
2018-05-27T01:42:12.378Z,16.32
2018-05-27T01:44:44.938Z,16.32
2018-05-27T01:47:17.525Z,16.32
2018-05-27T01:49:50.078Z,16.32
2018-05-27T01:52:22.731Z,16.33
2018-05-27T01:54:55.329Z,16.38
2018-05-27T01:57:27.964Z,16.37
2018-05-27T02:00:00.551Z,16.28
2018-05-27T02:02:33.125Z,16.23
2018-05-27T02:05:05.681Z,16.23
2018-05-27T02:07:38.289Z,16.26
2018-05-27T02:10:10.860Z,16.27
2018-05-27T02:12:43.441Z,16.28
2018-05-27T02:15:15.994Z,16.32
2018-05-27T02:17:48.569Z,16.39
2018-05-27T02:20:21.155Z,16.42
2018-05-27T02:22:53.744Z,16.44
2018-05-27T02:25:26.325Z,16.40
2018-05-27T02:27:58.919Z,16.40
2018-05-27T02:30:31.487Z,16.40
2018-05-27T02:33:04.132Z,16.37
2018-05-27T02:35:36.700Z,16.35
2018-05-27T02:38:09.319Z,16.34
2018-05-27T02:40:41.927Z,16.28
2018-05-27T02:43:14.536Z,16.22
2018-05-27T02:45:47.145Z,16.21
2018-05-27T02:48:19.707Z,16.26
2018-05-27T02:50:52.334Z,16.29
2018-05-27T02:53:24.917Z,16.30
2018-05-27T02:55:57.531Z,16.23
2018-05-27T02:58:30.119Z,16.18
2018-05-27T03:03:41.559Z,16.17
2018-05-27T03:06:14.173Z,16.17
2018-05-27T03:08:46.749Z,16.18
2018-05-27T03:11:19.344Z,16.17
2018-05-27T03:13:51.930Z,16.20
2018-05-27T03:16:24.528Z,16.26
2018-05-27T03:18:57.100Z,16.32
2018-05-27T03:21:29.679Z,16.36
2018-05-27T03:24:02.258Z,16.39
2018-05-27T03:26:34.847Z,16.32
2018-05-27T03:29:07.418Z,16.30
2018-05-27T03:31:40.018Z,16.36
2018-05-27T03:34:12.607Z,16.40
2018-05-27T03:36:45.215Z,16.42
2018-05-27T03:39:17.818Z,16.48
2018-05-27T03:41:50.448Z,16.54
2018-05-27T03:44:23.025Z,16.59
2018-05-27T03:46:55.632Z,16.63
2018-05-27T03:49:28.202Z,16.71
2018-05-27T03:52:00.805Z,16.70
2018-05-27T03:54:33.368Z,16.70
2018-05-27T03:57:06.005Z,16.71
2018-05-27T03:59:38.592Z,16.71
2018-05-27T04:02:11.183Z,16.73
2018-05-27T04:04:56.536Z,16.78
2018-05-27T04:07:40.840Z,16.84
2018-05-27T04:10:13.399Z,16.94
2018-05-27T04:12:46.007Z,16.97
2018-05-27T04:15:18.599Z,17.06
2018-05-27T04:17:51.205Z,17.14
2018-05-27T04:20:23.807Z,17.26
2018-05-27T04:22:56.402Z,17.38
2018-05-27T04:25:29.013Z,17.50
2018-05-27T04:28:01.667Z,17.59
2018-05-27T04:30:34.249Z,17.67
2018-05-27T04:33:06.864Z,17.77
2018-05-27T04:35:39.460Z,17.83
2018-05-27T04:38:12.096Z,17.91
2018-05-27T04:40:44.689Z,17.99
2018-05-27T04:43:17.327Z,18.02
2018-05-27T04:45:49.929Z,18.05
2018-05-27T04:48:23.552Z,18.10
2018-05-27T04:50:56.160Z,18.18
2018-05-27T04:53:28.764Z,18.28
2018-05-27T04:56:01.390Z,18.36
2018-05-27T04:58:33.986Z,18.44
2018-05-27T05:01:06.613Z,18.50
2018-05-27T05:03:40.186Z,18.59
2018-05-27T05:06:12.778Z,18.63
2018-05-27T05:08:45.375Z,18.73
2018-05-27T05:11:17.964Z,18.82
2018-05-27T05:13:50.579Z,18.88
2018-05-27T05:16:23.211Z,18.97
2018-05-27T05:18:55.844Z,19.05
2018-05-27T05:21:28.456Z,19.10
2018-05-27T05:24:01.046Z,19.22
2018-05-27T05:26:33.630Z,19.26
2018-05-27T05:29:06.247Z,19.29
2018-05-27T05:31:38.857Z,19.36
2018-05-27T05:34:11.490Z,19.38
2018-05-27T05:36:44.081Z,19.39
2018-05-27T05:39:16.700Z,19.42
2018-05-27T05:41:49.303Z,19.54
2018-05-27T05:44:21.910Z,19.63
2018-05-27T05:46:54.468Z,19.66
2018-05-27T05:49:27.090Z,19.74
2018-05-27T05:51:59.699Z,19.85
2018-05-27T05:54:32.301Z,20.03
2018-05-27T05:57:04.893Z,20.18
2018-05-27T05:59:37.507Z,20.29
2018-05-27T06:02:10.086Z,20.47
2018-05-27T06:04:42.713Z,20.64
2018-05-27T06:07:15.285Z,20.77
2018-05-27T06:09:47.884Z,20.95
2018-05-27T06:12:20.463Z,21.07
2018-05-27T06:14:53.124Z,21.18
2018-05-27T06:17:25.731Z,21.36
2018-05-27T06:19:58.346Z,21.42
2018-05-27T06:22:30.924Z,21.54
2018-05-27T06:25:03.532Z,21.54
2018-05-27T06:27:36.106Z,21.63
2018-05-27T06:30:08.707Z,21.77
2018-05-27T06:32:41.266Z,21.97
2018-05-27T06:35:13.863Z,22.08
2018-05-27T06:37:46.433Z,22.17
2018-05-27T06:40:19.043Z,22.20
2018-05-27T06:42:51.625Z,22.25
2018-05-27T06:45:24.233Z,22.32
2018-05-27T06:47:56.829Z,22.31
2018-05-27T06:50:29.441Z,22.38
2018-05-27T06:53:02.067Z,22.36
2018-05-27T06:55:34.679Z,22.48
2018-05-27T06:58:07.259Z,22.63
2018-05-27T07:00:39.899Z,22.70
2018-05-27T07:03:12.490Z,22.69
2018-05-27T07:05:45.098Z,22.78
2018-05-27T07:08:17.706Z,22.76
2018-05-27T07:10:50.308Z,22.83
2018-05-27T07:13:22.887Z,22.62
2018-05-27T07:15:55.504Z,22.73
2018-05-27T07:18:28.081Z,22.78
2018-05-27T07:21:00.689Z,22.90
2018-05-27T07:23:33.275Z,22.99
2018-05-27T07:26:05.894Z,23.07
2018-05-27T07:28:38.504Z,23.23
2018-05-27T07:31:11.175Z,23.34
2018-05-27T07:33:43.775Z,23.44
2018-05-27T07:36:16.368Z,23.53
2018-05-27T07:38:48.971Z,23.53
2018-05-27T07:41:21.545Z,23.72
2018-05-27T07:43:54.124Z,23.82
2018-05-27T07:46:26.795Z,23.95
2018-05-27T07:48:59.380Z,24.11
2018-05-27T07:51:31.984Z,24.19
2018-05-27T07:54:04.575Z,24.13
2018-05-27T07:56:37.192Z,24.22
2018-05-27T07:59:09.778Z,24.32
2018-05-27T08:01:42.409Z,24.36
2018-05-27T08:04:14.968Z,24.60
2018-05-27T08:06:47.600Z,24.76
2018-05-27T08:09:20.177Z,24.78
2018-05-27T08:11:52.793Z,24.64
2018-05-27T08:14:25.380Z,24.89
2018-05-27T08:16:57.978Z,25.10
2018-05-27T08:19:30.550Z,25.27
2018-05-27T08:22:03.161Z,25.04
2018-05-27T08:24:35.754Z,25.18
2018-05-27T08:27:08.384Z,25.30
2018-05-27T08:29:41.522Z,25.51
2018-05-27T08:32:14.096Z,25.55
2018-05-27T08:34:46.673Z,25.79
2018-05-27T08:37:19.529Z,25.82
2018-05-27T08:39:52.097Z,26.01
2018-05-27T08:42:24.683Z,26.18
2018-05-27T08:44:57.293Z,26.12
2018-05-27T08:47:29.889Z,26.69
2018-05-27T08:50:02.455Z,27.63
2018-05-27T08:52:35.029Z,28.19
2018-05-27T08:55:07.602Z,27.96
2018-05-27T08:57:40.190Z,27.62
2018-05-27T09:00:12.740Z,27.66
2018-05-27T09:02:45.326Z,28.28
2018-05-27T09:05:17.900Z,28.95
2018-05-27T09:07:50.491Z,29.40
2018-05-27T09:10:23.064Z,30.18
2018-05-27T09:12:55.647Z,30.12
2018-05-27T09:15:28.241Z,29.91
2018-05-27T09:18:00.855Z,29.54
2018-05-27T09:20:33.447Z,28.83
2018-05-27T09:23:06.794Z,28.39
2018-05-27T09:25:39.371Z,27.80
2018-05-27T09:28:11.941Z,27.88
2018-05-27T09:30:44.557Z,27.78
2018-05-27T09:33:17.124Z,27.60
2018-05-27T09:38:28.606Z,27.58
2018-05-27T09:41:01.216Z,27.81
2018-05-27T09:43:33.789Z,27.78
2018-05-27T09:46:07.271Z,27.59
2018-05-27T09:48:39.819Z,27.66
2018-05-27T09:51:12.494Z,27.70
2018-05-27T09:53:45.024Z,27.46
2018-05-27T09:56:17.637Z,27.45
2018-05-27T09:58:50.235Z,27.68
2018-05-27T10:01:22.828Z,27.94
2018-05-27T10:03:55.413Z,27.78
2018-05-27T10:06:28.013Z,27.98
2018-05-27T10:09:00.625Z,28.17
2018-05-27T10:11:33.227Z,28.17
2018-05-27T10:14:05.781Z,28.05
2018-05-27T10:16:38.425Z,27.94
2018-05-27T10:19:11.015Z,28.15
2018-05-27T10:21:43.602Z,28.37
2018-05-27T10:24:16.183Z,28.54
2018-05-27T10:26:48.787Z,28.33
2018-05-27T10:29:21.380Z,28.28
2018-05-27T10:31:53.973Z,28.27
2018-05-27T10:37:05.435Z,28.37
2018-05-27T10:39:38.050Z,28.53
2018-05-27T10:42:10.663Z,28.45
2018-05-27T10:44:43.285Z,28.38
2018-05-27T10:47:15.901Z,28.49
2018-05-27T10:49:48.470Z,28.54
2018-05-27T10:52:21.075Z,28.53
2018-05-27T10:54:53.639Z,28.63
2018-05-27T10:57:26.234Z,28.50
2018-05-27T11:02:37.789Z,28.40
2018-05-27T11:05:10.379Z,28.57
2018-05-27T11:07:42.979Z,28.89
2018-05-27T11:10:15.537Z,29.08
2018-05-27T11:12:48.114Z,29.10
2018-05-27T11:15:20.687Z,28.93
2018-05-27T11:17:53.303Z,28.67
2018-05-27T11:20:25.876Z,28.81
2018-05-27T11:22:58.487Z,28.83
2018-05-27T11:25:31.067Z,29.00
2018-05-27T11:28:05.373Z,29.25
2018-05-27T11:30:37.960Z,29.17
2018-05-27T11:33:10.574Z,29.40
2018-05-27T11:35:43.142Z,29.43
2018-05-27T11:38:15.768Z,28.96
2018-05-27T11:40:48.345Z,28.81
2018-05-27T11:43:20.933Z,28.87
2018-05-27T11:45:53.536Z,29.08
2018-05-27T11:48:26.136Z,28.81
2018-05-27T11:50:58.700Z,28.86
2018-05-27T11:53:31.332Z,28.76
2018-05-27T11:56:03.937Z,28.69
2018-05-27T11:58:36.792Z,28.58
2018-05-27T12:01:09.386Z,28.53
2018-05-27T12:03:42.022Z,28.90
2018-05-27T12:06:14.623Z,29.27
2018-05-27T12:08:47.250Z,29.10
2018-05-27T12:11:19.854Z,29.08
2018-05-27T12:13:52.475Z,28.85
2018-05-27T12:16:25.065Z,29.00
2018-05-27T12:18:57.647Z,29.16
2018-05-27T12:21:30.220Z,28.92
2018-05-27T12:24:02.856Z,29.23
2018-05-27T12:26:35.551Z,29.46
2018-05-27T12:29:08.171Z,29.53
2018-05-27T12:31:40.751Z,29.49
2018-05-27T12:34:13.353Z,29.68
2018-05-27T12:36:45.963Z,29.60
2018-05-27T12:39:18.623Z,29.65
2018-05-27T12:41:51.232Z,29.39
2018-05-27T12:44:23.813Z,29.46
2018-05-27T12:46:56.393Z,29.32
2018-05-27T12:49:28.999Z,29.45
2018-05-27T12:52:01.575Z,29.49
2018-05-27T12:54:34.173Z,29.59
2018-05-27T12:57:06.748Z,29.59
2018-05-27T12:59:45.215Z,29.69
2018-05-27T13:02:21.980Z,29.71
2018-05-27T13:04:54.628Z,29.70
2018-05-27T13:07:28.287Z,29.74
2018-05-27T13:10:00.873Z,29.82
2018-05-27T13:12:33.472Z,29.77
2018-05-27T13:15:06.059Z,29.74
2018-05-27T13:17:38.676Z,29.67
2018-05-27T13:20:11.260Z,29.65
2018-05-27T13:22:43.868Z,29.64
2018-05-27T13:25:16.449Z,29.48
2018-05-27T13:27:49.065Z,29.47
2018-05-27T13:30:21.653Z,29.54
2018-05-27T13:32:54.278Z,29.54
2018-05-27T13:35:26.906Z,29.60
2018-05-27T13:37:59.546Z,29.60
2018-05-27T13:40:32.132Z,29.84
2018-05-27T13:43:04.780Z,29.93
2018-05-27T13:45:37.380Z,29.91
2018-05-27T13:48:10.012Z,30.00
2018-05-27T13:50:42.592Z,30.24
2018-05-27T13:53:15.178Z,30.36
2018-05-27T13:55:47.779Z,30.36
2018-05-27T13:58:20.409Z,30.08
2018-05-27T14:00:58.667Z,30.05
2018-05-27T14:03:31.256Z,30.01
2018-05-27T14:06:03.873Z,30.05
2018-05-27T14:08:36.485Z,29.91
2018-05-27T14:11:09.058Z,29.98
2018-05-27T14:13:41.678Z,29.93
2018-05-27T14:16:14.245Z,29.88
2018-05-27T14:18:46.854Z,29.87
2018-05-27T14:21:19.474Z,29.81
2018-05-27T14:23:52.084Z,29.89
2018-05-27T14:26:24.648Z,29.89
2018-05-27T14:28:57.264Z,29.77
2018-05-27T14:31:29.858Z,29.82
2018-05-27T14:34:02.476Z,29.70
2018-05-27T14:36:35.042Z,29.57
2018-05-27T14:39:07.684Z,29.49
2018-05-27T14:41:42.049Z,29.55
2018-05-27T14:44:20.705Z,29.56
2018-05-27T14:46:53.268Z,29.50
2018-05-27T14:49:26.847Z,29.44
2018-05-27T14:52:01.361Z,29.51
2018-05-27T14:54:36.942Z,29.54
2018-05-27T14:57:14.671Z,29.68
2018-05-27T14:59:47.271Z,29.78
2018-05-27T15:02:19.923Z,29.63
2018-05-27T15:04:53.681Z,29.43
2018-05-27T15:10:05.608Z,29.17
2018-05-27T15:12:38.204Z,29.35
2018-05-27T15:15:10.804Z,29.30
2018-05-27T15:17:43.394Z,29.40
2018-05-27T15:20:16.034Z,29.41
2018-05-27T15:22:48.677Z,29.42
2018-05-27T15:25:21.360Z,29.35
2018-05-27T15:27:53.903Z,29.33
2018-05-27T15:30:26.516Z,29.25
2018-05-27T15:32:59.140Z,29.35
2018-05-27T15:35:31.754Z,29.31
2018-05-27T15:38:05.984Z,29.31
2018-05-27T15:40:38.635Z,29.46
2018-05-27T15:43:11.208Z,29.48
2018-05-27T15:45:43.814Z,29.53
2018-05-27T15:48:16.422Z,29.44
2018-05-27T15:50:49.065Z,29.52
2018-05-27T15:53:21.653Z,29.57
2018-05-27T15:55:56.356Z,29.56
2018-05-27T15:58:28.949Z,29.48
2018-05-27T16:01:03.086Z,29.54
2018-05-27T16:03:37.727Z,29.44
2018-05-27T16:06:10.340Z,29.47
2018-05-27T16:08:42.944Z,29.44
2018-05-27T16:11:15.560Z,29.47
2018-05-27T16:13:48.157Z,29.38
2018-05-27T16:16:20.767Z,29.39
2018-05-27T16:18:53.382Z,29.34
2018-05-27T16:21:25.998Z,29.30
2018-05-27T16:23:58.575Z,29.29
2018-05-27T16:26:31.208Z,29.28
2018-05-27T16:29:03.803Z,29.34
2018-05-27T16:31:36.425Z,29.46
2018-05-27T16:34:09.052Z,29.50
2018-05-27T16:36:41.664Z,29.51
2018-05-27T16:39:14.281Z,29.65
2018-05-27T16:41:46.905Z,30.13
2018-05-27T16:46:58.397Z,30.55
2018-05-27T16:49:31.011Z,30.40
2018-05-27T16:52:03.596Z,30.11
2018-05-27T16:54:36.230Z,30.11
2018-05-27T16:57:08.833Z,30.01
2018-05-27T16:59:41.466Z,29.94
2018-05-27T17:02:14.034Z,29.94
2018-05-27T17:04:46.662Z,29.83
2018-05-27T17:07:19.261Z,29.69
2018-05-27T17:09:51.938Z,29.64
2018-05-27T17:12:24.556Z,29.81
2018-05-27T17:14:57.209Z,29.82
2018-05-27T17:17:29.786Z,29.67
2018-05-27T17:20:02.496Z,29.55
2018-05-27T17:22:36.585Z,29.35
2018-05-27T17:25:09.222Z,29.19
2018-05-27T17:27:42.792Z,29.13
2018-05-27T17:30:15.542Z,29.08
2018-05-27T17:32:48.179Z,28.96
2018-05-27T17:35:20.801Z,28.93
2018-05-27T17:37:53.452Z,28.95
2018-05-27T17:40:26.081Z,28.89
2018-05-27T17:42:58.671Z,28.99
2018-05-27T17:45:31.295Z,29.03
2018-05-27T17:48:11.791Z,29.01
2018-05-27T17:50:44.458Z,29.04
2018-05-27T17:53:17.042Z,29.03
2018-05-27T17:55:49.664Z,29.04
2018-05-27T17:58:22.243Z,29.01
2018-05-27T18:00:54.865Z,28.97
2018-05-27T18:03:27.450Z,28.91
2018-05-27T18:06:00.094Z,28.82
2018-05-27T18:08:32.684Z,28.74
2018-05-27T18:11:05.344Z,28.66
2018-05-27T18:13:37.956Z,28.52
2018-05-27T18:16:10.610Z,28.35
2018-05-27T18:18:43.234Z,28.21
2018-05-27T18:21:15.860Z,28.14
2018-05-27T18:23:48.485Z,28.07
2018-05-27T18:26:21.314Z,28.01
2018-05-27T18:28:54.102Z,27.91
2018-05-27T18:31:26.726Z,27.82
2018-05-27T18:33:59.325Z,27.81
2018-05-27T18:36:31.936Z,27.79
2018-05-27T18:39:04.549Z,27.75
2018-05-27T18:41:37.183Z,27.68
2018-05-27T18:44:09.793Z,27.65
2018-05-27T18:46:42.395Z,27.52
2018-05-27T18:49:15.218Z,27.46
2018-05-27T18:51:47.855Z,27.35
2018-05-27T18:54:20.495Z,27.33
2018-05-27T18:56:53.123Z,27.30
2018-05-27T18:59:25.744Z,27.20
2018-05-27T19:01:58.357Z,27.16
2018-05-27T19:04:30.941Z,27.07
2018-05-27T19:07:03.564Z,27.02
2018-05-27T19:09:36.151Z,26.93
2018-05-27T19:12:08.760Z,26.77
2018-05-27T19:14:41.358Z,26.68
2018-05-27T19:17:13.983Z,26.51
2018-05-27T19:19:46.547Z,26.36
2018-05-27T19:22:19.160Z,26.32
2018-05-27T19:24:51.752Z,26.26
2018-05-27T19:27:24.684Z,26.20
2018-05-27T19:29:57.379Z,26.15
2018-05-27T19:32:30.021Z,26.05
2018-05-27T19:35:02.612Z,26.04
2018-05-27T19:37:35.228Z,25.95
2018-05-27T19:40:07.845Z,25.85
2018-05-27T19:42:40.465Z,25.80
2018-05-27T19:45:13.060Z,25.77
2018-05-27T19:47:45.661Z,25.71
2018-05-27T19:50:18.235Z,25.67
2018-05-27T19:52:50.859Z,25.59
2018-05-27T19:55:23.451Z,25.54
2018-05-27T19:57:56.097Z,25.54
2018-05-27T20:00:28.702Z,25.50
2018-05-27T20:03:01.288Z,25.45
2018-05-27T20:05:33.857Z,25.43
2018-05-27T20:08:06.454Z,25.42
2018-05-27T20:10:39.049Z,25.38
2018-05-27T20:13:11.661Z,25.31
2018-05-27T20:15:44.240Z,25.26
2018-05-27T20:18:16.956Z,25.19
2018-05-27T20:20:49.537Z,25.15
2018-05-27T20:23:22.120Z,25.10
2018-05-27T20:25:54.704Z,25.08
2018-05-27T20:28:27.322Z,25.03
2018-05-27T20:30:59.915Z,24.94
2018-05-27T20:33:32.531Z,24.75
2018-05-27T20:36:05.123Z,24.72
2018-05-27T20:38:37.771Z,24.68
2018-05-27T20:41:10.412Z,24.62
2018-05-27T20:43:43.027Z,24.58
2018-05-27T20:46:15.654Z,24.56
2018-05-27T20:48:48.241Z,24.52
2018-05-27T20:51:20.822Z,24.51
2018-05-27T20:53:53.435Z,24.43
2018-05-27T20:56:26.042Z,24.38
2018-05-27T20:58:58.687Z,24.43
2018-05-27T21:01:31.302Z,24.29
2018-05-27T21:04:03.934Z,24.23
2018-05-27T21:06:36.541Z,24.20
2018-05-27T21:09:09.169Z,24.12
2018-05-27T21:11:41.812Z,23.95
2018-05-27T21:14:14.431Z,23.95
2018-05-27T21:16:47.036Z,24.02
2018-05-27T21:19:19.615Z,23.98
2018-05-27T21:21:52.278Z,24.00
2018-05-27T21:24:24.891Z,24.01
2018-05-27T21:26:57.560Z,23.92
2018-05-27T21:29:30.168Z,23.90
2018-05-27T21:32:02.793Z,23.83
2018-05-27T21:34:35.398Z,23.82
2018-05-27T21:39:46.918Z,23.81
2018-05-27T21:42:19.563Z,23.80
2018-05-27T21:44:52.169Z,23.79
2018-05-27T21:47:24.832Z,23.63
2018-05-27T21:49:57.434Z,23.64
2018-05-27T21:52:30.067Z,23.60
2018-05-27T21:55:02.682Z,23.46
2018-05-27T21:57:35.311Z,23.50
2018-05-27T22:00:07.920Z,23.46
2018-05-27T22:02:40.512Z,23.41
2018-05-27T22:05:13.090Z,23.37
2018-05-27T22:07:45.724Z,23.20
2018-05-27T22:10:18.315Z,23.22
2018-05-27T22:12:50.947Z,23.23
2018-05-27T22:15:23.538Z,23.25
2018-05-27T22:17:56.150Z,23.10
2018-05-27T22:20:28.724Z,23.17
2018-05-27T22:23:01.350Z,23.25
2018-05-27T22:25:33.965Z,23.11
2018-05-27T22:28:06.594Z,23.07
2018-05-27T22:30:39.186Z,23.10
2018-05-27T22:33:11.798Z,23.08
2018-05-27T22:35:44.390Z,23.00
2018-05-27T22:38:16.987Z,22.94
2018-05-27T22:40:49.582Z,22.83
2018-05-27T22:43:22.182Z,22.77
2018-05-27T22:45:54.760Z,22.75
2018-05-27T22:48:27.369Z,22.71
2018-05-27T22:50:59.951Z,22.68
2018-05-27T22:53:32.541Z,22.60
2018-05-27T22:56:05.123Z,22.63
2018-05-27T22:58:37.787Z,22.74
2018-05-27T23:01:10.451Z,22.76
2018-05-27T23:03:43.090Z,22.75
2018-05-27T23:06:15.707Z,22.71
2018-05-27T23:08:48.321Z,22.67
2018-05-27T23:11:20.938Z,22.53
2018-05-27T23:13:53.559Z,22.42
2018-05-27T23:16:26.172Z,22.44
2018-05-27T23:18:58.782Z,22.44
2018-05-27T23:21:31.374Z,22.47
2018-05-27T23:24:03.959Z,22.43
2018-05-27T23:26:36.548Z,22.29
2018-05-27T23:29:09.180Z,22.28
2018-05-27T23:31:41.772Z,22.21
2018-05-27T23:34:14.384Z,22.15
2018-05-27T23:36:46.969Z,22.13
2018-05-27T23:39:19.604Z,22.12
2018-05-27T23:41:52.182Z,22.12
2018-05-27T23:44:24.815Z,22.10
2018-05-27T23:46:57.441Z,22.04
2018-05-27T23:49:30.045Z,22.01
2018-05-27T23:52:02.635Z,22.08
2018-05-27T23:54:36.356Z,22.03
2018-05-27T23:57:08.953Z,22.02
2018-05-27T23:59:41.561Z,21.95
